createdAt,value
2022-12-16T00:00:43.365Z,42.22
2022-12-16T00:01:48.413Z,38.89
2022-12-16T00:02:52.469Z,38.80
2022-12-16T00:03:56.395Z,37.91
2022-12-16T00:04:59.077Z,39.40
2022-12-16T00:06:00.965Z,37.60
2022-12-16T00:07:02.640Z,36.89
2022-12-16T00:08:06.142Z,36.89
2022-12-16T00:09:08.000Z,39.20
2022-12-16T00:10:10.513Z,41.70
2022-12-16T00:11:13.040Z,38.89
2022-12-16T00:12:14.840Z,41.60
2022-12-16T00:13:16.620Z,39.89
2022-12-16T00:14:18.472Z,40.67
2022-12-16T00:15:20.154Z,43.56
2022-12-16T00:16:21.994Z,40.56
2022-12-16T00:17:24.078Z,48.22
2022-12-16T00:18:26.086Z,34.89
2022-12-16T00:19:27.978Z,45.10
2022-12-16T00:20:31.015Z,48.44
2022-12-16T00:21:32.955Z,44.27
2022-12-16T00:22:35.847Z,41.89
2022-12-16T00:23:38.309Z,46.09
2022-12-16T00:24:41.290Z,45.00
2022-12-16T00:25:45.093Z,40.36
2022-12-16T00:26:47.411Z,44.90
2022-12-16T00:27:49.732Z,42.50
2022-12-16T00:28:53.462Z,44.90
2022-12-16T00:29:56.804Z,36.20
2022-12-16T00:30:58.942Z,41.89
2022-12-16T00:32:01.542Z,45.10
2022-12-16T00:33:04.861Z,44.10
2022-12-16T00:34:06.794Z,44.30
2022-12-16T00:35:09.275Z,43.44
2022-12-16T00:36:12.154Z,40.80
2022-12-16T00:37:14.135Z,43.10
2022-12-16T00:38:16.377Z,38.22
2022-12-16T00:39:18.705Z,40.20
2022-12-16T00:40:20.648Z,40.70
2022-12-16T00:41:22.523Z,32.11
2022-12-16T00:42:24.258Z,41.56
2022-12-16T00:43:26.422Z,39.22
2022-12-16T00:44:28.219Z,39.20
2022-12-16T00:45:30.795Z,37.78
2022-12-16T00:46:32.963Z,40.00
2022-12-16T00:47:36.007Z,39.33
2022-12-16T00:48:38.569Z,37.30
2022-12-16T00:49:41.138Z,38.80
2022-12-16T00:50:55.214Z,39.22
2022-12-16T00:51:58.267Z,36.30
2022-12-16T00:53:00.410Z,39.64
2022-12-16T00:54:02.579Z,41.70
2022-12-16T00:55:05.373Z,39.40
2022-12-16T00:56:11.144Z,39.60
2022-12-16T00:57:14.068Z,38.00
2022-12-16T00:58:16.292Z,39.40
2022-12-16T00:59:17.994Z,38.60
2022-12-16T01:00:20.323Z,35.67
2022-12-16T01:01:22.360Z,36.30
2022-12-16T01:02:26.023Z,37.20
2022-12-16T01:03:28.282Z,40.40
2022-12-16T01:04:30.256Z,39.10
2022-12-16T01:05:31.990Z,37.44
2022-12-16T01:06:34.412Z,33.56
2022-12-16T01:07:36.413Z,34.60
2022-12-16T01:08:38.690Z,38.00
2022-12-16T01:09:40.860Z,38.10
2022-12-16T01:10:44.661Z,33.10
2022-12-16T01:11:47.135Z,29.80
2022-12-16T01:12:49.114Z,34.20
2022-12-16T01:13:52.539Z,34.11
2022-12-16T01:14:56.275Z,33.20
2022-12-16T01:16:02.359Z,34.33
2022-12-16T01:17:04.366Z,31.60
2022-12-16T01:18:06.697Z,33.67
2022-12-16T01:19:09.778Z,30.30
2022-12-16T01:20:12.220Z,37.55
2022-12-16T01:21:15.141Z,33.80
2022-12-16T01:22:17.248Z,35.50
2022-12-16T01:23:19.192Z,33.40
2022-12-16T01:24:20.998Z,29.40
2022-12-16T01:25:22.966Z,31.22
2022-12-16T01:26:24.932Z,34.00
2022-12-16T01:27:28.595Z,27.78
2022-12-16T01:28:30.731Z,32.10
2022-12-16T01:29:32.556Z,34.20
2022-12-16T01:30:34.909Z,36.10
2022-12-16T01:31:36.707Z,34.70
2022-12-16T01:32:38.762Z,36.78
2022-12-16T01:33:44.872Z,36.90
2022-12-16T01:34:54.882Z,37.80
2022-12-16T01:36:03.883Z,38.00
2022-12-16T01:37:05.962Z,40.10
2022-12-16T01:38:07.933Z,31.60
2022-12-16T01:39:10.925Z,38.20
2022-12-16T01:40:19.872Z,38.50
2022-12-16T01:41:21.909Z,39.80
2022-12-16T01:42:23.831Z,36.33
2022-12-16T01:43:29.899Z,34.60
2022-12-16T01:44:34.878Z,35.70
2022-12-16T01:45:40.055Z,37.70
2022-12-16T01:46:45.332Z,37.90
2022-12-16T01:47:47.909Z,36.00
2022-12-16T01:48:59.529Z,33.80
2022-12-16T01:50:08.456Z,36.80
2022-12-16T01:51:33.925Z,36.50
2022-12-16T01:52:39.438Z,35.30
2022-12-16T01:53:44.220Z,37.00
2022-12-16T01:55:01.512Z,36.40
2022-12-16T06:20:26.562Z,44.50
2022-12-16T06:21:28.603Z,40.10
2022-12-16T06:22:30.382Z,39.78
2022-12-16T06:23:32.376Z,42.67
2022-12-16T06:24:34.305Z,40.33
2022-12-16T06:25:36.134Z,45.00
2022-12-16T06:26:38.038Z,44.22
2022-12-16T06:27:40.493Z,41.56
2022-12-16T06:28:45.869Z,40.80
2022-12-16T06:29:46.628Z,36.40
2022-12-16T06:30:49.751Z,40.10
2022-12-16T06:31:51.836Z,41.40
2022-12-16T06:32:53.888Z,39.60
2022-12-16T06:33:55.845Z,41.44
2022-12-16T06:34:57.706Z,40.22
2022-12-16T06:35:59.539Z,38.89
2022-12-16T06:37:01.401Z,36.89
2022-12-16T06:38:03.472Z,41.00
2022-12-16T06:39:06.397Z,38.80
2022-12-16T06:40:10.647Z,36.40
2022-12-16T06:41:12.630Z,38.90
2022-12-16T06:42:14.320Z,38.33
2022-12-16T06:43:16.198Z,38.56
2022-12-16T06:44:18.489Z,39.78
2022-12-16T06:45:20.296Z,46.00
2022-12-16T06:46:22.221Z,49.67
2022-12-16T06:47:23.999Z,44.22
2022-12-16T06:48:26.174Z,48.00
2022-12-16T06:49:28.016Z,43.00
2022-12-16T06:50:30.037Z,40.22
2022-12-16T06:51:31.804Z,40.22
2022-12-16T06:52:34.079Z,42.00
2022-12-16T06:53:36.353Z,31.40
2022-12-16T06:54:38.241Z,39.70
2022-12-16T06:55:39.986Z,40.56
2022-12-16T06:56:41.821Z,49.11
2022-12-16T06:57:43.613Z,49.22
2022-12-16T06:58:46.487Z,42.44
2022-12-16T06:59:48.336Z,42.09
2022-12-16T07:00:50.590Z,38.56
2022-12-16T07:01:52.635Z,40.90
2022-12-16T07:02:54.766Z,40.40
2022-12-16T07:03:56.772Z,40.50
2022-12-16T07:04:58.748Z,38.10
2022-12-16T07:06:00.555Z,42.00
2022-12-16T07:07:02.476Z,41.44
2022-12-16T07:08:04.362Z,44.56
2022-12-16T07:09:06.787Z,41.67
2022-12-16T07:10:09.215Z,37.20
2022-12-16T07:11:16.481Z,41.89
2022-12-16T07:12:14.999Z,42.30
2022-12-16T07:13:16.935Z,40.70
